sensor_id;sensor_type;location;lat;lon;timestamp;pressure;altitude;pressure_sealevel;temperature;humidity
53546;BME280;39432;51.902;10.844;2023-02-19T00:02:15;99489.50;;;9.11;100.00
53546;BME280;39432;51.902;10.844;2023-02-19T00:04:47;99478.47;;;9.01;100.00
53546;BME280;39432;51.902;10.844;2023-02-19T00:07:17;99483.50;;;9.09;100.00
53546;BME280;39432;51.902;10.844;2023-02-19T00:09:47;99480.75;;;9.09;100.00
53546;BME280;39432;51.902;10.844;2023-02-19T00:12:16;99478.41;;;9.35;100.00
53546;BME280;39432;51.902;10.844;2023-02-19T00:14:46;99474.94;;;9.22;100.00
53546;BME280;39432;51.902;10.844;2023-02-19T00:17:15;99469.63;;;9.33;100.00
53546;BME280;39432;51.902;10.844;2023-02-19T00:19:47;99455.53;;;9.41;100.00
53546;BME280;39432;51.902;10.844;2023-02-19T00:22:17;99449.25;;;9.40;100.00
53546;BME280;39432;51.902;10.844;2023-02-19T00:24:47;99451.97;;;9.62;100.00
53546;BME280;39432;51.902;10.844;2023-02-19T00:27:16;99438.63;;;9.44;100.00
53546;BME280;39432;51.902;10.844;2023-02-19T00:29:46;99438.50;;;9.34;100.00
53546;BME280;39432;51.902;10.844;2023-02-19T00:32:16;99411.44;;;9.10;100.00
53546;BME280;39432;51.902;10.844;2023-02-19T00:34:48;99410.50;;;9.00;100.00
53546;BME280;39432;51.902;10.844;2023-02-19T00:37:17;99423.66;;;9.24;100.00
53546;BME280;39432;51.902;10.844;2023-02-19T00:39:47;99418.69;;;9.21;100.00
53546;BME280;39432;51.902;10.844;2023-02-19T00:42:17;99414.78;;;9.12;100.00
53546;BME280;39432;51.902;10.844;2023-02-19T00:44:46;99415.34;;;9.14;100.00
53546;BME280;39432;51.902;10.844;2023-02-19T00:47:18;99421.00;;;9.30;100.00
53546;BME280;39432;51.902;10.844;2023-02-19T00:49:51;99423.97;;;9.28;100.00
53546;BME280;39432;51.902;10.844;2023-02-19T00:52:20;99422.44;;;9.37;100.00
53546;BME280;39432;51.902;10.844;2023-02-19T00:54:50;99402.25;;;9.38;100.00
53546;BME280;39432;51.902;10.844;2023-02-19T00:57:19;99395.59;;;9.51;100.00
53546;BME280;39432;51.902;10.844;2023-02-19T00:59:49;99400.56;;;9.59;100.00
53546;BME280;39432;51.902;10.844;2023-02-19T01:02:19;99393.75;;;9.84;100.00
53546;BME280;39432;51.902;10.844;2023-02-19T01:04:51;99385.38;;;9.95;100.00
53546;BME280;39432;51.902;10.844;2023-02-19T01:07:21;99369.91;;;10.06;100.00
53546;BME280;39432;51.902;10.844;2023-02-19T01:09:50;99371.56;;;9.80;100.00
53546;BME280;39432;51.902;10.844;2023-02-19T01:12:20;99358.53;;;9.60;100.00
53546;BME280;39432;51.902;10.844;2023-02-19T01:14:51;99358.56;;;9.65;100.00
53546;BME280;39432;51.902;10.844;2023-02-19T01:17:21;99343.56;;;10.64;100.00
53546;BME280;39432;51.902;10.844;2023-02-19T01:19:53;99330.78;;;10.80;100.00
53546;BME280;39432;51.902;10.844;2023-02-19T01:22:23;99322.31;;;10.87;100.00
53546;BME280;39432;51.902;10.844;2023-02-19T01:24:52;99306.50;;;10.09;100.00
53546;BME280;39432;51.902;10.844;2023-02-19T01:27:22;99308.34;;;10.31;100.00
53546;BME280;39432;51.902;10.844;2023-02-19T01:29:52;99305.69;;;9.76;100.00
53546;BME280;39432;51.902;10.844;2023-02-19T01:32:21;99301.59;;;9.47;100.00
53546;BME280;39432;51.902;10.844;2023-02-19T01:34:53;99302.47;;;9.26;100.00
53546;BME280;39432;51.902;10.844;2023-02-19T01:37:23;99302.53;;;9.31;100.00
53546;BME280;39432;51.902;10.844;2023-02-19T01:39:53;99310.53;;;9.69;100.00
53546;BME280;39432;51.902;10.844;2023-02-19T01:42:23;99309.00;;;9.79;100.00
53546;BME280;39432;51.902;10.844;2023-02-19T01:47:48;99292.50;;;9.68;100.00
53546;BME280;39432;51.902;10.844;2023-02-19T01:50:25;99290.34;;;9.70;100.00
53546;BME280;39432;51.902;10.844;2023-02-19T01:52:57;99283.84;;;9.76;100.00
53546;BME280;39432;51.902;10.844;2023-02-19T01:55:27;99281.06;;;9.44;100.00
53546;BME280;39432;51.902;10.844;2023-02-19T01:57:59;99288.25;;;9.50;100.00
53546;BME280;39432;51.902;10.844;2023-02-19T02:00:31;99294.59;;;9.29;100.00
53546;BME280;39432;51.902;10.844;2023-02-19T02:03:01;99281.94;;;9.45;100.00
53546;BME280;39432;51.902;10.844;2023-02-19T02:05:46;99287.13;;;8.97;100.00
53546;BME280;39432;51.902;10.844;2023-02-19T02:08:18;99291.03;;;8.80;100.00
53546;BME280;39432;51.902;10.844;2023-02-19T02:11:01;99290.50;;;8.83;100.00
53546;BME280;39432;51.902;10.844;2023-02-19T02:13:32;99291.38;;;8.88;100.00
53546;BME280;39432;51.902;10.844;2023-02-19T02:16:16;99270.44;;;8.94;100.00
53546;BME280;39432;51.902;10.844;2023-02-19T02:18:58;99265.63;;;9.01;100.00
53546;BME280;39432;51.902;10.844;2023-02-19T02:21:58;99257.19;;;9.03;100.00
53546;BME280;39432;51.902;10.844;2023-02-19T02:27:49;99242.13;;;9.00;100.00
53546;BME280;39432;51.902;10.844;2023-02-19T02:30:33;99231.75;;;8.97;100.00
53546;BME280;39432;51.902;10.844;2023-02-19T02:33:11;99233.41;;;8.98;100.00
53546;BME280;39432;51.902;10.844;2023-02-19T02:35:46;99218.66;;;8.99;100.00
53546;BME280;39432;51.902;10.844;2023-02-19T02:38:22;99219.00;;;9.03;100.00
53546;BME280;39432;51.902;10.844;2023-02-19T02:40:53;99214.56;;;8.96;100.00
53546;BME280;39432;51.902;10.844;2023-02-19T02:43:24;99221.34;;;8.94;100.00
53546;BME280;39432;51.902;10.844;2023-02-19T02:45:56;99220.94;;;9.07;100.00
53546;BME280;39432;51.902;10.844;2023-02-19T02:48:34;99228.03;;;9.08;100.00
53546;BME280;39432;51.902;10.844;2023-02-19T02:51:11;99229.78;;;9.19;100.00
53546;BME280;39432;51.902;10.844;2023-02-19T02:53:50;99255.91;;;9.10;100.00
53546;BME280;39432;51.902;10.844;2023-02-19T02:56:34;99263.09;;;8.94;100.00
53546;BME280;39432;51.902;10.844;2023-02-19T02:59:08;99265.19;;;8.87;100.00
53546;BME280;39432;51.902;10.844;2023-02-19T03:01:43;99279.31;;;8.84;100.00
53546;BME280;39432;51.902;10.844;2023-02-19T03:04:32;99286.69;;;8.84;100.00
53546;BME280;39432;51.902;10.844;2023-02-19T03:07:25;99281.81;;;8.86;100.00
53546;BME280;39432;51.902;10.844;2023-02-19T03:09:58;99289.47;;;8.89;100.00
53546;BME280;39432;51.902;10.844;2023-02-19T03:12:29;99285.09;;;8.88;100.00
53546;BME280;39432;51.902;10.844;2023-02-19T03:15:15;99288.91;;;8.87;100.00
53546;BME280;39432;51.902;10.844;2023-02-19T03:18:02;99281.81;;;8.86;100.00
53546;BME280;39432;51.902;10.844;2023-02-19T03:20:49;99287.28;;;8.86;100.00
53546;BME280;39432;51.902;10.844;2023-02-19T03:23:20;99294.88;;;8.84;100.00
53546;BME280;39432;51.902;10.844;2023-02-19T03:26:13;99295.97;;;8.83;100.00
53546;BME280;39432;51.902;10.844;2023-02-19T03:28:50;99297.53;;;8.79;100.00
53546;BME280;39432;51.902;10.844;2023-02-19T03:31:37;99297.94;;;8.87;100.00
53546;BME280;39432;51.902;10.844;2023-02-19T03:34:16;99304.47;;;8.86;100.00
53546;BME280;39432;51.902;10.844;2023-02-19T03:36:55;99305.03;;;8.88;100.00
53546;BME280;39432;51.902;10.844;2023-02-19T03:39:28;99309.16;;;8.91;100.00
53546;BME280;39432;51.902;10.844;2023-02-19T03:42:02;99299.91;;;8.92;100.00
53546;BME280;39432;51.902;10.844;2023-02-19T03:44:39;99301.75;;;8.86;100.00
53546;BME280;39432;51.902;10.844;2023-02-19T03:47:13;99296.72;;;9.00;100.00
53546;BME280;39432;51.902;10.844;2023-02-19T03:49:54;99304.00;;;8.94;100.00
53546;BME280;39432;51.902;10.844;2023-02-19T03:52:36;99305.91;;;8.94;100.00
53546;BME280;39432;51.902;10.844;2023-02-19T03:55:11;99305.34;;;8.92;100.00
53546;BME280;39432;51.902;10.844;2023-02-19T03:57:50;99299.97;;;8.97;100.00
53546;BME280;39432;51.902;10.844;2023-02-19T04:00:23;99280.34;;;9.00;100.00
53546;BME280;39432;51.902;10.844;2023-02-19T04:02:59;99296.22;;;9.03;100.00
53546;BME280;39432;51.902;10.844;2023-02-19T04:05:38;99285.34;;;9.08;100.00
53546;BME280;39432;51.902;10.844;2023-02-19T04:08:13;99293.81;;;9.07;100.00
53546;BME280;39432;51.902;10.844;2023-02-19T04:10:50;99297.34;;;9.07;100.00
53546;BME280;39432;51.902;10.844;2023-02-19T04:13:28;99296.97;;;8.98;100.00
53546;BME280;39432;51.902;10.844;2023-02-19T04:16:01;99296.47;;;9.02;100.00
53546;BME280;39432;51.902;10.844;2023-02-19T04:18:35;99296.72;;;9.00;100.00
53546;BME280;39432;51.902;10.844;2023-02-19T04:21:09;99301.19;;;9.11;100.00
53546;BME280;39432;51.902;10.844;2023-02-19T04:23:41;99298.38;;;9.01;100.00
53546;BME280;39432;51.902;10.844;2023-02-19T04:26:13;99294.25;;;8.98;100.00
53546;BME280;39432;51.902;10.844;2023-02-19T04:28:43;99287.97;;;8.98;100.00
53546;BME280;39432;51.902;10.844;2023-02-19T04:31:13;99300.78;;;8.97;100.00
53546;BME280;39432;51.902;10.844;2023-02-19T04:33:43;99300.53;;;8.99;100.00
53546;BME280;39432;51.902;10.844;2023-02-19T04:36:15;99304.34;;;8.98;100.00
53546;BME280;39432;51.902;10.844;2023-02-19T04:38:45;99309.28;;;9.01;100.00
53546;BME280;39432;51.902;10.844;2023-02-19T04:41:14;99313.34;;;8.98;100.00
53546;BME280;39432;51.902;10.844;2023-02-19T04:43:44;99311.16;;;9.01;100.00
53546;BME280;39432;51.902;10.844;2023-02-19T04:46:13;99319.06;;;8.97;100.00
53546;BME280;39432;51.902;10.844;2023-02-19T04:48:43;99325.13;;;9.04;100.00
53546;BME280;39432;51.902;10.844;2023-02-19T04:51:15;99321.84;;;9.02;100.00
53546;BME280;39432;51.902;10.844;2023-02-19T04:53:45;99329.44;;;9.00;100.00
53546;BME280;39432;51.902;10.844;2023-02-19T04:56:16;99337.56;;;8.95;100.00
53546;BME280;39432;51.902;10.844;2023-02-19T04:58:46;99355.72;;;8.45;100.00
53546;BME280;39432;51.902;10.844;2023-02-19T05:01:16;99373.47;;;8.14;100.00
53546;BME280;39432;51.902;10.844;2023-02-19T05:03:45;99377.44;;;7.33;100.00
53546;BME280;39432;51.902;10.844;2023-02-19T05:06:19;99395.34;;;6.65;100.00
53546;BME280;39432;51.902;10.844;2023-02-19T05:08:49;99406.41;;;6.28;100.00
53546;BME280;39432;51.902;10.844;2023-02-19T05:11:18;99404.81;;;5.97;100.00
53546;BME280;39432;51.902;10.844;2023-02-19T05:13:49;99417.97;;;5.82;100.00
53546;BME280;39432;51.902;10.844;2023-02-19T05:16:19;99415.06;;;5.65;100.00
53546;BME280;39432;51.902;10.844;2023-02-19T05:18:48;99421.66;;;5.58;100.00
53546;BME280;39432;51.902;10.844;2023-02-19T05:21:20;99426.81;;;5.47;100.00
53546;BME280;39432;51.902;10.844;2023-02-19T05:23:50;99439.31;;;5.48;100.00
53546;BME280;39432;51.902;10.844;2023-02-19T05:26:22;99436.44;;;5.43;100.00
53546;BME280;39432;51.902;10.844;2023-02-19T05:28:53;99453.78;;;5.61;100.00
53546;BME280;39432;51.902;10.844;2023-02-19T05:31:22;99477.06;;;5.98;100.00
53546;BME280;39432;51.902;10.844;2023-02-19T05:33:54;99477.00;;;6.05;100.00
53546;BME280;39432;51.902;10.844;2023-02-19T05:36:26;99473.75;;;5.48;100.00
53546;BME280;39432;51.902;10.844;2023-02-19T05:38:56;99472.19;;;5.22;100.00
53546;BME280;39432;51.902;10.844;2023-02-19T05:41:28;99480.09;;;5.23;100.00
53546;BME280;39432;51.902;10.844;2023-02-19T05:43:58;99498.50;;;5.40;100.00
53546;BME280;39432;51.902;10.844;2023-02-19T05:46:28;99513.59;;;5.11;100.00
53546;BME280;39432;51.902;10.844;2023-02-19T05:48:58;99532.47;;;5.42;100.00
53546;BME280;39432;51.902;10.844;2023-02-19T05:51:31;99532.94;;;5.39;100.00
53546;BME280;39432;51.902;10.844;2023-02-19T05:54:01;99545.38;;;5.03;100.00
53546;BME280;39432;51.902;10.844;2023-02-19T05:56:32;99550.94;;;4.90;100.00
53546;BME280;39432;51.902;10.844;2023-02-19T05:59:04;99562.78;;;4.96;100.00
53546;BME280;39432;51.902;10.844;2023-02-19T06:01:34;99570.28;;;5.19;100.00
53546;BME280;39432;51.902;10.844;2023-02-19T06:04:04;99580.47;;;4.98;100.00
53546;BME280;39432;51.902;10.844;2023-02-19T06:06:37;99586.34;;;4.95;100.00
53546;BME280;39432;51.902;10.844;2023-02-19T06:09:07;99605.38;;;5.32;100.00
53546;BME280;39432;51.902;10.844;2023-02-19T06:11:38;99629.56;;;5.77;100.00
53546;BME280;39432;51.902;10.844;2023-02-19T06:14:10;99636.44;;;5.36;100.00
53546;BME280;39432;51.902;10.844;2023-02-19T06:16:41;99641.03;;;5.79;100.00
53546;BME280;39432;51.902;10.844;2023-02-19T06:19:10;99649.31;;;6.21;100.00
53546;BME280;39432;51.902;10.844;2023-02-19T06:21:42;99655.97;;;6.43;100.00
53546;BME280;39432;51.902;10.844;2023-02-19T06:24:12;99658.72;;;6.06;100.00
53546;BME280;39432;51.902;10.844;2023-02-19T06:26:41;99651.00;;;6.22;100.00
53546;BME280;39432;51.902;10.844;2023-02-19T06:29:12;99647.75;;;6.13;100.00
53546;BME280;39432;51.902;10.844;2023-02-19T06:31:42;99668.44;;;6.32;100.00
53546;BME280;39432;51.902;10.844;2023-02-19T06:34:11;99664.22;;;6.18;100.00
53546;BME280;39432;51.902;10.844;2023-02-19T06:36:43;99655.59;;;5.85;100.00
53546;BME280;39432;51.902;10.844;2023-02-19T06:39:13;99660.38;;;5.64;100.00
53546;BME280;39432;51.902;10.844;2023-02-19T06:41:43;99658.31;;;5.85;100.00
53546;BME280;39432;51.902;10.844;2023-02-19T06:44:13;99663.16;;;6.01;100.00
53546;BME280;39432;51.902;10.844;2023-02-19T06:46:42;99660.47;;;5.76;100.00
53546;BME280;39432;51.902;10.844;2023-02-19T06:49:12;99663.25;;;5.88;100.00
53546;BME280;39432;51.902;10.844;2023-02-19T06:51:44;99664.88;;;6.14;100.00
53546;BME280;39432;51.902;10.844;2023-02-19T06:54:14;99667.84;;;5.94;100.00
53546;BME280;39432;51.902;10.844;2023-02-19T06:56:43;99681.19;;;5.95;100.00
53546;BME280;39432;51.902;10.844;2023-02-19T06:59:15;99682.41;;;6.18;100.00
53546;BME280;39432;51.902;10.844;2023-02-19T07:01:45;99692.13;;;5.64;100.00
53546;BME280;39432;51.902;10.844;2023-02-19T07:04:14;99685.81;;;5.70;100.00
53546;BME280;39432;51.902;10.844;2023-02-19T07:06:46;99698.78;;;5.18;100.00
53546;BME280;39432;51.902;10.844;2023-02-19T07:09:16;99701.50;;;4.86;100.00
53546;BME280;39432;51.902;10.844;2023-02-19T07:11:46;99707.56;;;4.43;100.00
53546;BME280;39432;51.902;10.844;2023-02-19T07:14:16;99723.50;;;4.20;100.00
53546;BME280;39432;51.902;10.844;2023-02-19T07:16:46;99742.69;;;4.05;100.00
53546;BME280;39432;51.902;10.844;2023-02-19T07:19:16;99739.59;;;3.88;100.00
53546;BME280;39432;51.902;10.844;2023-02-19T07:21:49;99758.56;;;3.62;100.00
53546;BME280;39432;51.902;10.844;2023-02-19T07:24:18;99770.84;;;3.58;100.00
53546;BME280;39432;51.902;10.844;2023-02-19T07:26:48;99777.91;;;3.85;100.00
53546;BME280;39432;51.902;10.844;2023-02-19T07:29:17;99796.03;;;3.72;100.00
53546;BME280;39432;51.902;10.844;2023-02-19T07:31:47;99805.19;;;3.64;100.00
53546;BME280;39432;51.902;10.844;2023-02-19T07:34:17;99811.63;;;3.76;100.00
53546;BME280;39432;51.902;10.844;2023-02-19T07:36:49;99817.66;;;3.78;100.00
53546;BME280;39432;51.902;10.844;2023-02-19T07:39:19;99820.59;;;3.96;100.00
53546;BME280;39432;51.902;10.844;2023-02-19T07:41:48;99832.00;;;4.25;100.00
53546;BME280;39432;51.902;10.844;2023-02-19T07:44:28;99845.88;;;4.62;100.00
53546;BME280;39432;51.902;10.844;2023-02-19T07:46:57;99848.00;;;4.33;100.00
53546;BME280;39432;51.902;10.844;2023-02-19T07:49:27;99856.09;;;4.53;100.00
53546;BME280;39432;51.902;10.844;2023-02-19T07:51:59;99861.28;;;4.68;100.00
53546;BME280;39432;51.902;10.844;2023-02-19T07:54:29;99864.66;;;4.43;100.00
53546;BME280;39432;51.902;10.844;2023-02-19T07:56:58;99877.22;;;4.18;100.00
53546;BME280;39432;51.902;10.844;2023-02-19T07:59:28;99881.38;;;4.14;100.00
53546;BME280;39432;51.902;10.844;2023-02-19T08:01:58;99870.13;;;3.90;100.00
53546;BME280;39432;51.902;10.844;2023-02-19T08:04:40;99887.94;;;3.38;100.00
53546;BME280;39432;51.902;10.844;2023-02-19T08:07:13;99898.22;;;3.63;100.00
53546;BME280;39432;51.902;10.844;2023-02-19T08:09:43;99896.59;;;3.14;100.00
53546;BME280;39432;51.902;10.844;2023-02-19T08:12:33;99907.06;;;3.30;100.00
53546;BME280;39432;51.902;10.844;2023-02-19T08:15:15;99912.19;;;3.86;100.00
53546;BME280;39432;51.902;10.844;2023-02-19T08:17:47;99930.09;;;4.27;100.00
53546;BME280;39432;51.902;10.844;2023-02-19T08:20:17;99933.44;;;4.16;100.00
53546;BME280;39432;51.902;10.844;2023-02-19T08:22:49;99935.09;;;4.17;100.00
53546;BME280;39432;51.902;10.844;2023-02-19T08:25:19;99933.38;;;3.69;100.00
53546;BME280;39432;51.902;10.844;2023-02-19T08:27:48;99936.34;;;4.08;100.00
53546;BME280;39432;51.902;10.844;2023-02-19T08:30:18;99944.25;;;4.49;100.00
53546;BME280;39432;51.902;10.844;2023-02-19T08:32:48;99943.63;;;4.73;100.00
53546;BME280;39432;51.902;10.844;2023-02-19T08:35:17;99948.41;;;4.65;100.00
53546;BME280;39432;51.902;10.844;2023-02-19T08:37:50;99939.63;;;4.89;100.00
53546;BME280;39432;51.902;10.844;2023-02-19T08:40:19;99942.94;;;4.98;100.00
53546;BME280;39432;51.902;10.844;2023-02-19T08:42:49;99940.72;;;4.62;100.00
53546;BME280;39432;51.902;10.844;2023-02-19T08:45:19;99943.81;;;4.72;100.00
53546;BME280;39432;51.902;10.844;2023-02-19T08:47:49;99945.41;;;4.99;100.00
53546;BME280;39432;51.902;10.844;2023-02-19T08:50:19;99941.69;;;5.00;100.00
53546;BME280;39432;51.902;10.844;2023-02-19T08:52:51;99940.00;;;4.99;100.00
53546;BME280;39432;51.902;10.844;2023-02-19T08:55:21;99937.44;;;5.18;100.00
53546;BME280;39432;51.902;10.844;2023-02-19T08:57:51;99932.38;;;5.73;100.00
53546;BME280;39432;51.902;10.844;2023-02-19T09:00:21;99939.03;;;5.32;100.00
53546;BME280;39432;51.902;10.844;2023-02-19T09:02:50;99936.13;;;5.27;100.00
53546;BME280;39432;51.902;10.844;2023-02-19T09:05:20;99937.69;;;5.61;100.00
53546;BME280;39432;51.902;10.844;2023-02-19T09:07:52;99930.41;;;5.48;100.00
53546;BME280;39432;51.902;10.844;2023-02-19T09:10:21;99934.75;;;5.18;100.00
53546;BME280;39432;51.902;10.844;2023-02-19T09:12:51;99936.41;;;5.19;100.00
53546;BME280;39432;51.902;10.844;2023-02-19T09:15:21;99945.19;;;5.08;100.00
53546;BME280;39432;51.902;10.844;2023-02-19T09:17:52;99957.16;;;5.38;100.00
53546;BME280;39432;51.902;10.844;2023-02-19T09:20:21;99964.28;;;5.39;100.00
53546;BME280;39432;51.902;10.844;2023-02-19T09:22:57;99957.47;;;5.17;100.00
53546;BME280;39432;51.902;10.844;2023-02-19T09:25:27;99964.13;;;5.21;100.00
53546;BME280;39432;51.902;10.844;2023-02-19T09:27:57;99979.47;;;5.47;100.00
53546;BME280;39432;51.902;10.844;2023-02-19T09:30:26;99977.69;;;5.27;100.00
53546;BME280;39432;51.902;10.844;2023-02-19T09:32:56;99982.50;;;5.19;100.00
53546;BME280;39432;51.902;10.844;2023-02-19T09:35:25;99989.38;;;5.28;100.00
53546;BME280;39432;51.902;10.844;2023-02-19T09:37:58;99986.53;;;5.54;100.00
53546;BME280;39432;51.902;10.844;2023-02-19T09:40:29;99983.09;;;5.21;100.00
53546;BME280;39432;51.902;10.844;2023-02-19T09:42:59;99990.84;;;5.24;100.00
53546;BME280;39432;51.902;10.844;2023-02-19T09:45:28;99977.28;;;5.24;100.00
53546;BME280;39432;51.902;10.844;2023-02-19T09:47:58;99975.97;;;5.40;100.00
53546;BME280;39432;51.902;10.844;2023-02-19T09:50:31;99965.81;;;5.22;100.00
53546;BME280;39432;51.902;10.844;2023-02-19T09:53:11;99973.28;;;5.33;100.00
53546;BME280;39432;51.902;10.844;2023-02-19T09:55:43;99987.25;;;5.37;100.00
53546;BME280;39432;51.902;10.844;2023-02-19T09:58:20;99992.34;;;5.65;100.00
53546;BME280;39432;51.902;10.844;2023-02-19T10:00:55;99993.25;;;5.97;100.00
53546;BME280;39432;51.902;10.844;2023-02-19T10:03:29;99996.56;;;5.61;100.00
53546;BME280;39432;51.902;10.844;2023-02-19T10:06:04;99998.28;;;6.25;100.00
53546;BME280;39432;51.902;10.844;2023-02-19T10:08:40;99993.09;;;6.73;100.00
53546;BME280;39432;51.902;10.844;2023-02-19T10:11:11;100000.81;;;5.88;100.00
53546;BME280;39432;51.902;10.844;2023-02-19T10:13:43;100008.81;;;6.15;100.00
53546;BME280;39432;51.902;10.844;2023-02-19T10:16:16;99997.09;;;6.46;100.00
53546;BME280;39432;51.902;10.844;2023-02-19T10:18:47;100002.88;;;5.93;100.00
53546;BME280;39432;51.902;10.844;2023-02-19T10:21:20;100012.25;;;5.97;100.00
53546;BME280;39432;51.902;10.844;2023-02-19T10:23:55;100006.53;;;6.43;100.00
53546;BME280;39432;51.902;10.844;2023-02-19T10:26:27;100003.47;;;6.58;100.00
53546;BME280;39432;51.902;10.844;2023-02-19T10:29:00;100003.63;;;6.88;100.00
53546;BME280;39432;51.902;10.844;2023-02-19T10:31:31;100018.56;;;7.04;100.00
53546;BME280;39432;51.902;10.844;2023-02-19T10:34:01;100021.97;;;6.49;100.00
53546;BME280;39432;51.902;10.844;2023-02-19T10:36:36;100024.22;;;6.21;100.00
53546;BME280;39432;51.902;10.844;2023-02-19T10:39:28;100034.91;;;6.97;100.00
53546;BME280;39432;51.902;10.844;2023-02-19T10:42:01;100044.38;;;6.70;100.00
53546;BME280;39432;51.902;10.844;2023-02-19T10:44:40;100035.28;;;6.26;100.00
53546;BME280;39432;51.902;10.844;2023-02-19T10:47:15;100040.25;;;6.85;100.00
53546;BME280;39432;51.902;10.844;2023-02-19T10:49:46;100044.13;;;6.46;100.00
53546;BME280;39432;51.902;10.844;2023-02-19T10:52:19;100052.19;;;6.59;100.00
53546;BME280;39432;51.902;10.844;2023-02-19T10:54:55;100057.97;;;6.95;100.00
53546;BME280;39432;51.902;10.844;2023-02-19T10:57:27;100051.16;;;7.29;100.00
53546;BME280;39432;51.902;10.844;2023-02-19T11:00:19;100055.50;;;6.93;100.00
53546;BME280;39432;51.902;10.844;2023-02-19T11:03:13;100072.19;;;6.40;100.00
53546;BME280;39432;51.902;10.844;2023-02-19T11:05:52;100069.88;;;6.69;100.00
53546;BME280;39432;51.902;10.844;2023-02-19T11:08:26;100075.63;;;6.60;100.00
53546;BME280;39432;51.902;10.844;2023-02-19T11:10:59;100080.69;;;6.50;100.00
53546;BME280;39432;51.902;10.844;2023-02-19T11:13:31;100091.09;;;6.85;100.00
53546;BME280;39432;51.902;10.844;2023-02-19T11:16:04;100086.84;;;6.64;100.00
53546;BME280;39432;51.902;10.844;2023-02-19T11:18:33;100087.94;;;6.25;100.00
53546;BME280;39432;51.902;10.844;2023-02-19T11:21:06;100081.13;;;6.47;100.00
53546;BME280;39432;51.902;10.844;2023-02-19T11:23:42;100079.44;;;6.78;100.00
53546;BME280;39432;51.902;10.844;2023-02-19T11:26:18;100073.25;;;6.71;100.00
53546;BME280;39432;51.902;10.844;2023-02-19T11:28:55;100073.78;;;6.54;100.00
53546;BME280;39432;51.902;10.844;2023-02-19T11:31:27;100065.34;;;6.63;100.00
53546;BME280;39432;51.902;10.844;2023-02-19T11:34:00;100067.59;;;6.41;100.00
53546;BME280;39432;51.902;10.844;2023-02-19T11:36:32;100078.50;;;6.34;100.00
53546;BME280;39432;51.902;10.844;2023-02-19T11:39:19;100079.56;;;5.88;100.00
53546;BME280;39432;51.902;10.844;2023-02-19T11:44:49;100086.47;;;6.29;100.00
53546;BME280;39432;51.902;10.844;2023-02-19T11:47:44;100086.72;;;6.84;100.00
53546;BME280;39432;51.902;10.844;2023-02-19T11:50:20;100088.50;;;6.72;100.00
53546;BME280;39432;51.902;10.844;2023-02-19T11:53:02;100087.66;;;6.40;100.00
53546;BME280;39432;51.902;10.844;2023-02-19T11:55:48;100087.88;;;6.70;100.00
53546;BME280;39432;51.902;10.844;2023-02-19T11:58:43;100099.38;;;6.40;100.00
53546;BME280;39432;51.902;10.844;2023-02-19T12:01:21;100097.97;;;6.63;100.00
53546;BME280;39432;51.902;10.844;2023-02-19T12:04:05;100091.81;;;6.74;100.00
53546;BME280;39432;51.902;10.844;2023-02-19T12:06:51;100073.94;;;6.84;100.00
53546;BME280;39432;51.902;10.844;2023-02-19T12:09:36;100074.78;;;6.85;100.00
53546;BME280;39432;51.902;10.844;2023-02-19T12:12:25;100084.81;;;6.28;100.00
53546;BME280;39432;51.902;10.844;2023-02-19T12:18:27;100091.34;;;6.52;100.00
53546;BME280;39432;51.902;10.844;2023-02-19T12:21:16;100095.69;;;6.59;100.00
53546;BME280;39432;51.902;10.844;2023-02-19T12:24:03;100091.88;;;6.92;100.00
53546;BME280;39432;51.902;10.844;2023-02-19T12:26:42;100088.75;;;7.13;100.00
53546;BME280;39432;51.902;10.844;2023-02-19T12:29:26;100088.38;;;6.85;100.00
53546;BME280;39432;51.902;10.844;2023-02-19T12:32:11;100085.59;;;6.92;100.00
53546;BME280;39432;51.902;10.844;2023-02-19T12:35:08;100096.47;;;6.67;100.00
53546;BME280;39432;51.902;10.844;2023-02-19T12:37:46;100088.75;;;7.13;100.00
53546;BME280;39432;51.902;10.844;2023-02-19T12:40:27;100091.06;;;7.35;100.00
53546;BME280;39432;51.902;10.844;2023-02-19T12:43:08;100087.47;;;6.98;100.00
53546;BME280;39432;51.902;10.844;2023-02-19T12:45:45;100088.47;;;7.03;100.00
53546;BME280;39432;51.902;10.844;2023-02-19T12:48:26;100082.16;;;7.28;100.00
53546;BME280;39432;51.902;10.844;2023-02-19T12:51:04;100091.81;;;7.24;100.00
53546;BME280;39432;51.902;10.844;2023-02-19T12:53:40;100100.88;;;7.18;100.00
53546;BME280;39432;51.902;10.844;2023-02-19T12:56:16;100100.59;;;7.01;100.00
53546;BME280;39432;51.902;10.844;2023-02-19T12:58:48;100112.22;;;7.15;100.00
53546;BME280;39432;51.902;10.844;2023-02-19T13:01:22;100106.38;;;7.11;100.00
53546;BME280;39432;51.902;10.844;2023-02-19T13:04:13;100111.06;;;7.04;100.00
53546;BME280;39432;51.902;10.844;2023-02-19T13:06:50;100107.63;;;7.08;100.00
53546;BME280;39432;51.902;10.844;2023-02-19T13:09:25;100115.88;;;7.27;100.00
53546;BME280;39432;51.902;10.844;2023-02-19T13:12:00;100110.44;;;6.77;100.00
53546;BME280;39432;51.902;10.844;2023-02-19T13:14:35;100118.75;;;6.82;100.00
53546;BME280;39432;51.902;10.844;2023-02-19T13:17:16;100120.22;;;7.09;100.00
53546;BME280;39432;51.902;10.844;2023-02-19T13:19:54;100130.59;;;6.94;100.00
53546;BME280;39432;51.902;10.844;2023-02-19T13:22:30;100132.13;;;7.08;100.00
53546;BME280;39432;51.902;10.844;2023-02-19T13:25:16;100133.38;;;6.88;100.00
53546;BME280;39432;51.902;10.844;2023-02-19T13:27:58;100134.31;;;7.00;100.00
53546;BME280;39432;51.902;10.844;2023-02-19T13:30:53;100137.75;;;6.89;100.00
53546;BME280;39432;51.902;10.844;2023-02-19T13:33:35;100141.69;;;6.93;100.00
53546;BME280;39432;51.902;10.844;2023-02-19T13:36:13;100142.19;;;6.83;100.00